sensor_id;sensor_type;location;lat;lon;timestamp;P1;durP1;ratioP1;P2;durP2;ratioP2
16977;SDS011;8605;52.548;4.918;2023-04-02T00:02:34;53.45;;;27.50;;
16977;SDS011;8605;52.548;4.918;2023-04-02T00:07:47;55.53;;;28.70;;
16977;SDS011;8605;52.548;4.918;2023-04-02T00:12:58;58.33;;;28.80;;
16977;SDS011;8605;52.548;4.918;2023-04-02T00:18:04;57.80;;;28.33;;
16977;SDS011;8605;52.548;4.918;2023-04-02T00:23:08;55.95;;;26.70;;
16977;SDS011;8605;52.548;4.918;2023-04-02T00:28:13;67.87;;;30.13;;
16977;SDS011;8605;52.548;4.918;2023-04-02T00:33:19;57.63;;;26.90;;
16977;SDS011;8605;52.548;4.918;2023-04-02T00:38:24;56.97;;;26.60;;
16977;SDS011;8605;52.548;4.918;2023-04-02T00:43:28;57.00;;;28.67;;
16977;SDS011;8605;52.548;4.918;2023-04-02T00:48:36;51.67;;;23.47;;
16977;SDS011;8605;52.548;4.918;2023-04-02T00:53:43;50.90;;;23.03;;
16977;SDS011;8605;52.548;4.918;2023-04-02T00:58:49;53.90;;;23.97;;
16977;SDS011;8605;52.548;4.918;2023-04-02T01:03:55;55.45;;;24.30;;
16977;SDS011;8605;52.548;4.918;2023-04-02T01:09:05;58.57;;;27.17;;
16977;SDS011;8605;52.548;4.918;2023-04-02T01:14:15;49.00;;;24.97;;
16977;SDS011;8605;52.548;4.918;2023-04-02T01:24:58;50.63;;;24.45;;
16977;SDS011;8605;52.548;4.918;2023-04-02T01:30:04;51.23;;;23.27;;
16977;SDS011;8605;52.548;4.918;2023-04-02T01:35:08;38.60;;;19.35;;
16977;SDS011;8605;52.548;4.918;2023-04-02T01:40:15;49.78;;;23.88;;
16977;SDS011;8605;52.548;4.918;2023-04-02T01:45:25;42.70;;;20.77;;
16977;SDS011;8605;52.548;4.918;2023-04-02T01:50:29;39.77;;;20.70;;
16977;SDS011;8605;52.548;4.918;2023-04-02T01:55:39;48.80;;;25.00;;
16977;SDS011;8605;52.548;4.918;2023-04-02T02:00:46;44.93;;;22.70;;
16977;SDS011;8605;52.548;4.918;2023-04-02T02:05:52;44.33;;;22.85;;
16977;SDS011;8605;52.548;4.918;2023-04-02T02:10:56;36.40;;;19.55;;
16977;SDS011;8605;52.548;4.918;2023-04-02T02:16:02;29.10;;;17.58;;
16977;SDS011;8605;52.548;4.918;2023-04-02T02:21:05;32.83;;;17.35;;
16977;SDS011;8605;52.548;4.918;2023-04-02T02:26:09;38.72;;;19.80;;
16977;SDS011;8605;52.548;4.918;2023-04-02T02:31:16;29.45;;;14.75;;
16977;SDS011;8605;52.548;4.918;2023-04-02T02:36:26;16.20;;;7.72;;
16977;SDS011;8605;52.548;4.918;2023-04-02T02:41:36;13.13;;;7.13;;
16977;SDS011;8605;52.548;4.918;2023-04-02T02:46:44;29.77;;;14.67;;
16977;SDS011;8605;52.548;4.918;2023-04-02T02:51:51;32.03;;;17.27;;
16977;SDS011;8605;52.548;4.918;2023-04-02T02:57:04;30.23;;;14.87;;
16977;SDS011;8605;52.548;4.918;2023-04-02T03:02:12;32.20;;;18.55;;
16977;SDS011;8605;52.548;4.918;2023-04-02T03:07:18;44.78;;;21.00;;
16977;SDS011;8605;52.548;4.918;2023-04-02T03:12:26;41.35;;;22.38;;
16977;SDS011;8605;52.548;4.918;2023-04-02T03:17:35;35.88;;;20.25;;
16977;SDS011;8605;52.548;4.918;2023-04-02T03:22:41;45.10;;;22.00;;
16977;SDS011;8605;52.548;4.918;2023-04-02T03:27:47;27.20;;;16.50;;
16977;SDS011;8605;52.548;4.918;2023-04-02T03:32:53;36.10;;;16.77;;
16977;SDS011;8605;52.548;4.918;2023-04-02T03:37:59;40.08;;;20.10;;
16977;SDS011;8605;52.548;4.918;2023-04-02T03:43:04;48.00;;;21.07;;
16977;SDS011;8605;52.548;4.918;2023-04-02T03:48:18;36.93;;;20.00;;
16977;SDS011;8605;52.548;4.918;2023-04-02T03:53:25;41.15;;;20.13;;
16977;SDS011;8605;52.548;4.918;2023-04-02T03:58:33;32.10;;;16.27;;
16977;SDS011;8605;52.548;4.918;2023-04-02T04:03:43;36.95;;;16.50;;
16977;SDS011;8605;52.548;4.918;2023-04-02T04:08:48;27.10;;;13.13;;
16977;SDS011;8605;52.548;4.918;2023-04-02T04:13:56;24.58;;;12.52;;
16977;SDS011;8605;52.548;4.918;2023-04-02T04:19:03;27.20;;;12.73;;
16977;SDS011;8605;52.548;4.918;2023-04-02T04:24:12;27.23;;;12.93;;
16977;SDS011;8605;52.548;4.918;2023-04-02T04:29:30;21.05;;;9.10;;
16977;SDS011;8605;52.548;4.918;2023-04-02T04:34:42;13.93;;;7.82;;
16977;SDS011;8605;52.548;4.918;2023-04-02T04:40:01;16.30;;;7.57;;
16977;SDS011;8605;52.548;4.918;2023-04-02T04:45:11;13.98;;;8.07;;
16977;SDS011;8605;52.548;4.918;2023-04-02T04:50:24;16.13;;;7.53;;
16977;SDS011;8605;52.548;4.918;2023-04-02T04:55:34;13.03;;;5.97;;
16977;SDS011;8605;52.548;4.918;2023-04-02T05:00:41;13.43;;;6.75;;
16977;SDS011;8605;52.548;4.918;2023-04-02T05:06:14;12.37;;;5.70;;
16977;SDS011;8605;52.548;4.918;2023-04-02T05:11:22;9.85;;;5.55;;
16977;SDS011;8605;52.548;4.918;2023-04-02T05:16:28;11.98;;;5.70;;
16977;SDS011;8605;52.548;4.918;2023-04-02T05:21:38;11.97;;;5.60;;
16977;SDS011;8605;52.548;4.918;2023-04-02T05:26:45;8.30;;;4.80;;
16977;SDS011;8605;52.548;4.918;2023-04-02T05:31:52;12.03;;;5.27;;
16977;SDS011;8605;52.548;4.918;2023-04-02T05:37:00;13.27;;;5.75;;
16977;SDS011;8605;52.548;4.918;2023-04-02T05:42:07;11.80;;;5.38;;
16977;SDS011;8605;52.548;4.918;2023-04-02T05:47:25;12.98;;;6.57;;
16977;SDS011;8605;52.548;4.918;2023-04-02T05:52:34;13.90;;;5.43;;
16977;SDS011;8605;52.548;4.918;2023-04-02T05:57:41;12.80;;;6.20;;
16977;SDS011;8605;52.548;4.918;2023-04-02T06:03:06;14.18;;;5.85;;
16977;SDS011;8605;52.548;4.918;2023-04-02T06:08:20;11.13;;;4.78;;
16977;SDS011;8605;52.548;4.918;2023-04-02T06:13:24;15.27;;;4.70;;
16977;SDS011;8605;52.548;4.918;2023-04-02T06:18:29;8.95;;;4.38;;
16977;SDS011;8605;52.548;4.918;2023-04-02T06:23:36;7.72;;;3.47;;
16977;SDS011;8605;52.548;4.918;2023-04-02T06:28:43;7.57;;;3.00;;
16977;SDS011;8605;52.548;4.918;2023-04-02T06:33:50;6.75;;;2.75;;
16977;SDS011;8605;52.548;4.918;2023-04-02T06:39:00;9.43;;;2.90;;
16977;SDS011;8605;52.548;4.918;2023-04-02T06:44:08;10.10;;;3.43;;
16977;SDS011;8605;52.548;4.918;2023-04-02T06:49:34;7.75;;;3.05;;
16977;SDS011;8605;52.548;4.918;2023-04-02T06:54:43;5.22;;;2.15;;
16977;SDS011;8605;52.548;4.918;2023-04-02T06:59:47;6.47;;;3.05;;
16977;SDS011;8605;52.548;4.918;2023-04-02T07:04:54;10.70;;;3.67;;
16977;SDS011;8605;52.548;4.918;2023-04-02T07:10:03;7.72;;;2.85;;
16977;SDS011;8605;52.548;4.918;2023-04-02T07:15:08;8.38;;;3.25;;
16977;SDS011;8605;52.548;4.918;2023-04-02T07:20:19;7.55;;;2.85;;
16977;SDS011;8605;52.548;4.918;2023-04-02T07:25:29;6.25;;;2.90;;
16977;SDS011;8605;52.548;4.918;2023-04-02T07:30:32;8.65;;;4.30;;
16977;SDS011;8605;52.548;4.918;2023-04-02T07:35:35;8.35;;;3.10;;
16977;SDS011;8605;52.548;4.918;2023-04-02T07:40:39;9.27;;;3.75;;
16977;SDS011;8605;52.548;4.918;2023-04-02T07:45:42;9.40;;;3.43;;
16977;SDS011;8605;52.548;4.918;2023-04-02T07:50:45;7.65;;;3.10;;
16977;SDS011;8605;52.548;4.918;2023-04-02T07:55:51;5.07;;;2.38;;
16977;SDS011;8605;52.548;4.918;2023-04-02T08:00:54;5.40;;;2.20;;
16977;SDS011;8605;52.548;4.918;2023-04-02T08:05:57;9.03;;;2.77;;
16977;SDS011;8605;52.548;4.918;2023-04-02T08:11:02;11.13;;;3.35;;
16977;SDS011;8605;52.548;4.918;2023-04-02T08:16:05;6.13;;;2.72;;
16977;SDS011;8605;52.548;4.918;2023-04-02T08:21:08;7.63;;;2.30;;
16977;SDS011;8605;52.548;4.918;2023-04-02T08:26:16;7.95;;;2.60;;
16977;SDS011;8605;52.548;4.918;2023-04-02T08:31:20;3.75;;;2.00;;
16977;SDS011;8605;52.548;4.918;2023-04-02T08:36:25;6.28;;;2.55;;
16977;SDS011;8605;52.548;4.918;2023-04-02T08:41:33;4.88;;;2.22;;
16977;SDS011;8605;52.548;4.918;2023-04-02T08:46:40;8.00;;;2.00;;
16977;SDS011;8605;52.548;4.918;2023-04-02T08:51:45;6.00;;;2.10;;
16977;SDS011;8605;52.548;4.918;2023-04-02T08:56:52;5.50;;;2.05;;
16977;SDS011;8605;52.548;4.918;2023-04-02T09:02:00;7.40;;;2.10;;
16977;SDS011;8605;52.548;4.918;2023-04-02T09:07:07;5.78;;;2.08;;
16977;SDS011;8605;52.548;4.918;2023-04-02T09:12:16;10.18;;;2.17;;
16977;SDS011;8605;52.548;4.918;2023-04-02T09:17:23;3.85;;;1.73;;
16977;SDS011;8605;52.548;4.918;2023-04-02T09:22:28;4.63;;;1.77;;
16977;SDS011;8605;52.548;4.918;2023-04-02T09:27:34;6.15;;;2.78;;
16977;SDS011;8605;52.548;4.918;2023-04-02T09:32:44;5.90;;;1.93;;
16977;SDS011;8605;52.548;4.918;2023-04-02T09:38:09;4.38;;;2.17;;
16977;SDS011;8605;52.548;4.918;2023-04-02T09:43:16;4.87;;;2.00;;
16977;SDS011;8605;52.548;4.918;2023-04-02T09:48:21;5.22;;;1.45;;
16977;SDS011;8605;52.548;4.918;2023-04-02T09:53:27;6.45;;;2.20;;
16977;SDS011;8605;52.548;4.918;2023-04-02T09:58:34;8.55;;;2.30;;
16977;SDS011;8605;52.548;4.918;2023-04-02T10:03:37;9.83;;;2.60;;
16977;SDS011;8605;52.548;4.918;2023-04-02T10:08:44;5.70;;;2.00;;
16977;SDS011;8605;52.548;4.918;2023-04-02T10:13:50;4.60;;;1.85;;
16977;SDS011;8605;52.548;4.918;2023-04-02T10:18:55;7.67;;;2.47;;
16977;SDS011;8605;52.548;4.918;2023-04-02T10:23:59;6.05;;;2.05;;
16977;SDS011;8605;52.548;4.918;2023-04-02T10:29:11;5.40;;;1.60;;
16977;SDS011;8605;52.548;4.918;2023-04-02T10:34:22;4.57;;;1.85;;
16977;SDS011;8605;52.548;4.918;2023-04-02T10:39:27;7.15;;;2.55;;
16977;SDS011;8605;52.548;4.918;2023-04-02T10:44:40;4.63;;;2.05;;
16977;SDS011;8605;52.548;4.918;2023-04-02T10:49:46;6.20;;;2.05;;
16977;SDS011;8605;52.548;4.918;2023-04-02T10:54:53;4.17;;;1.97;;
16977;SDS011;8605;52.548;4.918;2023-04-02T11:00:02;4.28;;;2.10;;
16977;SDS011;8605;52.548;4.918;2023-04-02T11:05:15;3.87;;;1.90;;
16977;SDS011;8605;52.548;4.918;2023-04-02T11:10:21;5.03;;;1.65;;
16977;SDS011;8605;52.548;4.918;2023-04-02T11:15:25;5.77;;;2.10;;
16977;SDS011;8605;52.548;4.918;2023-04-02T11:20:42;8.77;;;2.67;;
16977;SDS011;8605;52.548;4.918;2023-04-02T11:31:32;4.57;;;1.83;;
16977;SDS011;8605;52.548;4.918;2023-04-02T11:42:03;3.97;;;2.40;;
16977;SDS011;8605;52.548;4.918;2023-04-02T11:47:15;6.95;;;2.00;;
16977;SDS011;8605;52.548;4.918;2023-04-02T11:52:21;6.80;;;2.53;;
16977;SDS011;8605;52.548;4.918;2023-04-02T12:03:17;4.13;;;1.95;;
16977;SDS011;8605;52.548;4.918;2023-04-02T12:08:34;4.20;;;1.83;;
16977;SDS011;8605;52.548;4.918;2023-04-02T12:13:57;3.10;;;1.97;;
16977;SDS011;8605;52.548;4.918;2023-04-02T12:19:02;3.40;;;1.40;;
16977;SDS011;8605;52.548;4.918;2023-04-02T12:24:11;5.22;;;1.63;;
16977;SDS011;8605;52.548;4.918;2023-04-02T12:29:22;3.45;;;1.80;;
16977;SDS011;8605;52.548;4.918;2023-04-02T12:34:28;5.20;;;1.67;;
16977;SDS011;8605;52.548;4.918;2023-04-02T12:39:32;4.10;;;1.80;;
16977;SDS011;8605;52.548;4.918;2023-04-02T12:44:35;5.30;;;2.20;;
16977;SDS011;8605;52.548;4.918;2023-04-02T12:49:40;3.67;;;1.37;;
16977;SDS011;8605;52.548;4.918;2023-04-02T12:54:44;5.55;;;1.60;;
16977;SDS011;8605;52.548;4.918;2023-04-02T12:59:48;3.70;;;1.40;;
16977;SDS011;8605;52.548;4.918;2023-04-02T13:04:53;5.82;;;1.80;;
16977;SDS011;8605;52.548;4.918;2023-04-02T13:09:57;8.03;;;2.00;;
16977;SDS011;8605;52.548;4.918;2023-04-02T13:15:02;3.28;;;1.60;;
16977;SDS011;8605;52.548;4.918;2023-04-02T13:25:33;4.80;;;1.50;;
16977;SDS011;8605;52.548;4.918;2023-04-02T13:30:37;2.90;;;1.52;;
16977;SDS011;8605;52.548;4.918;2023-04-02T13:35:41;3.80;;;1.38;;
16977;SDS011;8605;52.548;4.918;2023-04-02T13:40:44;6.47;;;1.80;;
16977;SDS011;8605;52.548;4.918;2023-04-02T13:45:47;4.90;;;2.00;;
16977;SDS011;8605;52.548;4.918;2023-04-02T13:50:53;3.03;;;1.45;;
16977;SDS011;8605;52.548;4.918;2023-04-02T13:55:56;5.35;;;1.73;;
16977;SDS011;8605;52.548;4.918;2023-04-02T14:00:59;3.20;;;1.70;;
16977;SDS011;8605;52.548;4.918;2023-04-02T14:06:05;5.32;;;1.80;;
16977;SDS011;8605;52.548;4.918;2023-04-02T14:11:15;2.80;;;1.42;;
16977;SDS011;8605;52.548;4.918;2023-04-02T14:16:26;2.60;;;1.50;;
16977;SDS011;8605;52.548;4.918;2023-04-02T14:21:41;4.57;;;2.20;;
16977;SDS011;8605;52.548;4.918;2023-04-02T14:26:57;4.55;;;2.22;;
16977;SDS011;8605;52.548;4.918;2023-04-02T14:32:07;6.97;;;1.95;;
16977;SDS011;8605;52.548;4.918;2023-04-02T14:37:17;7.40;;;2.10;;
16977;SDS011;8605;52.548;4.918;2023-04-02T14:42:25;5.23;;;2.00;;
16977;SDS011;8605;52.548;4.918;2023-04-02T14:47:32;8.00;;;2.08;;
16977;SDS011;8605;52.548;4.918;2023-04-02T14:52:41;5.47;;;1.60;;
16977;SDS011;8605;52.548;4.918;2023-04-02T14:57:46;2.90;;;1.43;;
16977;SDS011;8605;52.548;4.918;2023-04-02T15:02:53;6.17;;;2.10;;
16977;SDS011;8605;52.548;4.918;2023-04-02T15:07:59;3.10;;;1.63;;
16977;SDS011;8605;52.548;4.918;2023-04-02T15:13:05;3.03;;;1.52;;
16977;SDS011;8605;52.548;4.918;2023-04-02T15:18:13;4.32;;;2.20;;
16977;SDS011;8605;52.548;4.918;2023-04-02T15:23:20;3.00;;;1.63;;
16977;SDS011;8605;52.548;4.918;2023-04-02T15:28:29;4.43;;;1.80;;
16977;SDS011;8605;52.548;4.918;2023-04-02T15:33:42;4.32;;;1.70;;
16977;SDS011;8605;52.548;4.918;2023-04-02T15:38:48;4.70;;;1.50;;
16977;SDS011;8605;52.548;4.918;2023-04-02T15:43:55;5.23;;;1.40;;
16977;SDS011;8605;52.548;4.918;2023-04-02T15:49:12;3.85;;;1.67;;
16977;SDS011;8605;52.548;4.918;2023-04-02T15:54:25;3.15;;;1.48;;
16977;SDS011;8605;52.548;4.918;2023-04-02T15:59:37;4.23;;;1.50;;
16977;SDS011;8605;52.548;4.918;2023-04-02T16:04:47;2.43;;;1.53;;
16977;SDS011;8605;52.548;4.918;2023-04-02T16:09:58;2.83;;;1.38;;
16977;SDS011;8605;52.548;4.918;2023-04-02T16:15:10;2.27;;;1.30;;
16977;SDS011;8605;52.548;4.918;2023-04-02T16:20:17;2.75;;;1.75;;
16977;SDS011;8605;52.548;4.918;2023-04-02T16:25:24;3.38;;;1.55;;
16977;SDS011;8605;52.548;4.918;2023-04-02T16:30:32;2.80;;;1.42;;
16977;SDS011;8605;52.548;4.918;2023-04-02T16:35:42;2.60;;;1.42;;
16977;SDS011;8605;52.548;4.918;2023-04-02T16:40:51;5.13;;;1.70;;
16977;SDS011;8605;52.548;4.918;2023-04-02T16:46:11;4.60;;;1.75;;
16977;SDS011;8605;52.548;4.918;2023-04-02T16:51:33;5.85;;;2.53;;
16977;SDS011;8605;52.548;4.918;2023-04-02T16:56:44;9.25;;;2.70;;
16977;SDS011;8605;52.548;4.918;2023-04-02T17:01:55;7.22;;;3.22;;
16977;SDS011;8605;52.548;4.918;2023-04-02T17:07:03;9.73;;;3.42;;
16977;SDS011;8605;52.548;4.918;2023-04-02T17:12:15;6.72;;;2.95;;
16977;SDS011;8605;52.548;4.918;2023-04-02T17:17:21;4.77;;;2.90;;
16977;SDS011;8605;52.548;4.918;2023-04-02T17:22:24;5.80;;;3.00;;
16977;SDS011;8605;52.548;4.918;2023-04-02T17:27:51;6.78;;;2.97;;
16977;SDS011;8605;52.548;4.918;2023-04-02T17:32:56;7.07;;;3.37;;
16977;SDS011;8605;52.548;4.918;2023-04-02T17:38:00;11.63;;;4.05;;
16977;SDS011;8605;52.548;4.918;2023-04-02T17:43:09;8.63;;;3.70;;
16977;SDS011;8605;52.548;4.918;2023-04-02T17:48:16;5.60;;;2.90;;
16977;SDS011;8605;52.548;4.918;2023-04-02T17:53:28;11.15;;;3.92;;
16977;SDS011;8605;52.548;4.918;2023-04-02T17:58:50;8.93;;;3.40;;
16977;SDS011;8605;52.548;4.918;2023-04-02T18:04:03;6.23;;;3.20;;
16977;SDS011;8605;52.548;4.918;2023-04-02T18:14:41;7.47;;;3.70;;
16977;SDS011;8605;52.548;4.918;2023-04-02T18:19:52;9.77;;;3.60;;
16977;SDS011;8605;52.548;4.918;2023-04-02T18:25:13;9.88;;;3.78;;
16977;SDS011;8605;52.548;4.918;2023-04-02T18:30:27;9.00;;;3.50;;
16977;SDS011;8605;52.548;4.918;2023-04-02T18:35:32;12.07;;;3.70;;
16977;SDS011;8605;52.548;4.918;2023-04-02T18:40:37;7.37;;;3.90;;
16977;SDS011;8605;52.548;4.918;2023-04-02T18:45:50;5.97;;;3.07;;
16977;SDS011;8605;52.548;4.918;2023-04-02T18:50:57;6.05;;;2.33;;
16977;SDS011;8605;52.548;4.918;2023-04-02T18:56:02;12.20;;;2.93;;
16977;SDS011;8605;52.548;4.918;2023-04-02T19:01:07;4.88;;;2.70;;
16977;SDS011;8605;52.548;4.918;2023-04-02T19:06:12;8.80;;;2.60;;
16977;SDS011;8605;52.548;4.918;2023-04-02T19:11:20;5.55;;;2.50;;
16977;SDS011;8605;52.548;4.918;2023-04-02T19:16:34;7.97;;;2.80;;
16977;SDS011;8605;52.548;4.918;2023-04-02T19:21:58;7.00;;;2.75;;
16977;SDS011;8605;52.548;4.918;2023-04-02T19:27:07;7.27;;;2.77;;
16977;SDS011;8605;52.548;4.918;2023-04-02T19:32:17;9.00;;;3.20;;
16977;SDS011;8605;52.548;4.918;2023-04-02T19:37:26;6.97;;;2.78;;
16977;SDS011;8605;52.548;4.918;2023-04-02T19:42:36;5.37;;;2.80;;
16977;SDS011;8605;52.548;4.918;2023-04-02T19:47:46;6.47;;;2.80;;
16977;SDS011;8605;52.548;4.918;2023-04-02T19:52:49;8.00;;;2.97;;
16977;SDS011;8605;52.548;4.918;2023-04-02T19:57:52;7.80;;;3.40;;
16977;SDS011;8605;52.548;4.918;2023-04-02T20:03:14;11.55;;;4.00;;
16977;SDS011;8605;52.548;4.918;2023-04-02T20:08:17;9.27;;;4.27;;
16977;SDS011;8605;52.548;4.918;2023-04-02T20:13:20;12.45;;;4.05;;
16977;SDS011;8605;52.548;4.918;2023-04-02T20:18:24;10.40;;;4.72;;
16977;SDS011;8605;52.548;4.918;2023-04-02T20:23:27;10.83;;;5.17;;
16977;SDS011;8605;52.548;4.918;2023-04-02T20:28:30;10.03;;;4.70;;
16977;SDS011;8605;52.548;4.918;2023-04-02T20:33:34;13.23;;;4.38;;
16977;SDS011;8605;52.548;4.918;2023-04-02T20:38:37;13.65;;;4.78;;
16977;SDS011;8605;52.548;4.918;2023-04-02T20:43:40;12.13;;;4.85;;
16977;SDS011;8605;52.548;4.918;2023-04-02T20:48:44;11.82;;;5.28;;
16977;SDS011;8605;52.548;4.918;2023-04-02T20:53:47;15.50;;;5.90;;
16977;SDS011;8605;52.548;4.918;2023-04-02T20:58:50;12.48;;;5.22;;
16977;SDS011;8605;52.548;4.918;2023-04-02T21:03:55;13.07;;;5.20;;
16977;SDS011;8605;52.548;4.918;2023-04-02T21:08:59;12.10;;;4.72;;
16977;SDS011;8605;52.548;4.918;2023-04-02T21:14:02;12.63;;;5.53;;
16977;SDS011;8605;52.548;4.918;2023-04-02T21:19:07;12.27;;;4.80;;
16977;SDS011;8605;52.548;4.918;2023-04-02T21:24:11;10.77;;;4.68;;
16977;SDS011;8605;52.548;4.918;2023-04-02T21:29:14;11.48;;;5.00;;
16977;SDS011;8605;52.548;4.918;2023-04-02T21:34:18;10.30;;;5.20;;
16977;SDS011;8605;52.548;4.918;2023-04-02T21:39:21;12.73;;;5.05;;
16977;SDS011;8605;52.548;4.918;2023-04-02T21:44:25;11.23;;;4.93;;
16977;SDS011;8605;52.548;4.918;2023-04-02T21:49:29;18.10;;;5.57;;
16977;SDS011;8605;52.548;4.918;2023-04-02T21:54:32;8.82;;;4.50;;
16977;SDS011;8605;52.548;4.918;2023-04-02T21:59:35;12.00;;;4.90;;
16977;SDS011;8605;52.548;4.918;2023-04-02T22:04:39;14.00;;;6.18;;
16977;SDS011;8605;52.548;4.918;2023-04-02T22:09:42;12.60;;;5.90;;
16977;SDS011;8605;52.548;4.918;2023-04-02T22:14:45;14.00;;;6.72;;
16977;SDS011;8605;52.548;4.918;2023-04-02T22:19:49;18.80;;;6.90;;
16977;SDS011;8605;52.548;4.918;2023-04-02T22:24:52;15.15;;;6.07;;
16977;SDS011;8605;52.548;4.918;2023-04-02T22:29:56;14.33;;;6.23;;
16977;SDS011;8605;52.548;4.918;2023-04-02T22:35:00;16.13;;;6.20;;
16977;SDS011;8605;52.548;4.918;2023-04-02T22:40:03;13.43;;;5.70;;
16977;SDS011;8605;52.548;4.918;2023-04-02T22:45:07;14.07;;;5.77;;
16977;SDS011;8605;52.548;4.918;2023-04-02T22:50:12;10.80;;;5.35;;
16977;SDS011;8605;52.548;4.918;2023-04-02T22:55:14;13.75;;;5.55;;
16977;SDS011;8605;52.548;4.918;2023-04-02T23:00:18;12.63;;;5.82;;
16977;SDS011;8605;52.548;4.918;2023-04-02T23:05:22;10.70;;;5.20;;
16977;SDS011;8605;52.548;4.918;2023-04-02T23:10:25;9.38;;;4.00;;
16977;SDS011;8605;52.548;4.918;2023-04-02T23:15:31;5.65;;;2.70;;
16977;SDS011;8605;52.548;4.918;2023-04-02T23:20:35;6.93;;;3.35;;
16977;SDS011;8605;52.548;4.918;2023-04-02T23:25:38;7.77;;;2.30;;
16977;SDS011;8605;52.548;4.918;2023-04-02T23:30:41;6.05;;;2.45;;
16977;SDS011;8605;52.548;4.918;2023-04-02T23:35:46;3.57;;;2.00;;
16977;SDS011;8605;52.548;4.918;2023-04-02T23:40:49;5.90;;;2.20;;
16977;SDS011;8605;52.548;4.918;2023-04-02T23:45:51;3.53;;;1.73;;
16977;SDS011;8605;52.548;4.918;2023-04-02T23:50:56;4.63;;;2.07;;
16977;SDS011;8605;52.548;4.918;2023-04-02T23:55:58;5.18;;;2.15;;
